KSIY/SIY METAR and TAF weather

Enter ICAO airport designator
Station Type Date Time Source
KSIY METAR 2021/05/11 01:53 UTC NOAA

KSIY 110153Z AUTO 35008KT 10SM CLR 24/M03 A3001 RMK AO2 SLP161 T02441028 $


Station Type Date Time Source
KSIY Decoded METAR 2021/05/11 01:53 UTC NOAA

MONTAGUE SISKIYOU COUNTY, CA, United States (KSIY) 41-46N 122-28W
May 10, 2021 - 09:53 PM EDT / 2021.05.11 0153 UTC
Wind: from the N (350 degrees) at 9 MPH (8 KT):0
Visibility: 10 mile(s):0
Sky conditions: clear
Temperature: 75.9 F (24.4 C)
Dew Point: 27.0 F (-2.8 C)
Relative Humidity: 16%
Pressure (altimeter): 30.01 in. Hg (1016 hPa)
ob: KSIY 110153Z AUTO 35008KT 10SM CLR 24/M03 A3001 RMK AO2 SLP161 T02441028
cycle: 2

Station Type Date Time Source
KSIY TAF UTC NOAA

Error!

Example: see airport list